Lake Charles/Chennault AFB, Louisiana
Current Conditions -  °F | °C
As of 12:55 AM on Sunday 26 Oct 2014 (Local Time) from KCWF Reporting Station
Clear Clear  
Wind Chill: 58°   Ceiling: Unl
Heat Index: 58°   Visibility: 10mi
Dew Point: 56°   Wind: 0mph
Humidity: 94%   Direction: NA
Pressure: 30.08"   Gusts: NA
Location:  30.22°N, 93.15°W
Report Text: KCWF 260555Z AUTO 00000KT 10SM CLR 13/13 A3008 RMK AO2 T01420133 10230 20140 402780102
Loading
Personal Weather Stations






























Interactive Weather Map
Tropical Storm Tracking
New forecast layout! Learn more

10-Day Weather Forecast

Advertisements
Track Severe Weather on mobile